Time;durP1;ratioP1;P1;durP2;ratioP2;P2;SDS_P1;SDS_P2;PMS_P1;PMS_P2;Temp;Humidity;BMP_temperature;BMP_pressure;BME280_temperature;BME280_humidity;BME280_pressure;Samples;Min_cycle;Max_cycle;Signal;HPM_P1;HPM_P2
2024/03/25 00:01:59;;;;;;;13.27;3.40;;;6.70;99.90;;;;;;5074347;28;20412;-69
2024/03/25 00:04:24;;;;;;;2.80;2.33;;;6.60;99.90;;;;;;5074303;28;20173;-69
2024/03/25 00:06:51;;;;;;;4.10;2.40;;;6.50;99.90;;;;;;5073876;28;20173;-69
2024/03/25 00:09:17;;;;;;;10.03;2.90;;;6.50;99.90;;;;;;5074077;28;20182;-69
2024/03/25 00:11:42;;;;;;;5.93;2.80;;;6.50;99.90;;;;;;5056289;28;20426;-69
2024/03/25 00:14:08;;;;;;;6.80;2.30;;;6.50;99.90;;;;;;5052084;28;20233;-69
2024/03/25 00:16:34;;;;;;;3.47;2.20;;;6.40;99.90;;;;;;5055886;28;20181;-69
2024/03/25 00:19:00;;;;;;;3.00;2.50;;;6.40;99.90;;;;;;5071236;28;20469;-69
2024/03/25 00:21:26;;;;;;;5.87;2.77;;;6.30;99.90;;;;;;5051221;28;20166;-69
2024/03/25 00:23:51;;;;;;;7.63;2.40;;;6.20;99.90;;;;;;5064253;28;20908;-69
2024/03/25 00:26:17;;;;;;;7.73;3.33;;;6.20;99.90;;;;;;5073759;28;20163;-69
2024/03/25 00:28:43;;;;;;;5.73;2.70;;;6.10;99.90;;;;;;5072392;28;20610;-69
2024/03/25 00:31:09;;;;;;;7.80;2.87;;;6.00;99.90;;;;;;5068167;28;20549;-69
2024/03/25 00:33:34;;;;;;;9.33;3.17;;;5.90;99.90;;;;;;5073730;28;20412;-69
2024/03/25 00:36:00;;;;;;;7.90;3.60;;;5.90;99.90;;;;;;5073570;28;20849;-69
2024/03/25 00:38:26;;;;;;;13.73;2.80;;;5.90;99.90;;;;;;5073608;28;20259;-69
2024/03/25 00:40:51;;;;;;;11.63;2.70;;;5.80;99.90;;;;;;5067427;28;20482;-69
2024/03/25 00:43:17;;;;;;;19.90;3.23;;;5.90;99.90;;;;;;5073480;28;20166;-69
2024/03/25 00:45:43;;;;;;;3.83;2.47;;;5.90;99.90;;;;;;5073583;28;20170;-69
2024/03/25 00:48:09;;;;;;;6.67;2.00;;;6.00;99.90;;;;;;5073357;28;20487;-69
2024/03/25 00:50:34;;;;;;;13.37;3.50;;;6.10;99.90;;;;;;5067136;28;20170;-69
2024/03/25 00:53:00;;;;;;;11.37;3.03;;;6.20;99.90;;;;;;5073197;28;20315;-69
2024/03/25 00:55:25;;;;;;;5.60;2.17;;;6.20;99.90;;;;;;5073594;28;20170;-69
2024/03/25 00:57:51;;;;;;;9.10;2.20;;;6.30;99.90;;;;;;5073102;28;20204;-69
2024/03/25 01:00:17;;;;;;;6.03;2.67;;;6.30;99.90;;;;;;5066942;28;20198;-69
2024/03/25 01:02:43;;;;;;;5.90;2.47;;;6.20;99.90;;;;;;5058709;28;20174;-70
2024/03/25 01:05:09;;;;;;;7.03;3.00;;;6.10;99.90;;;;;;5073419;28;20466;-70
2024/03/25 01:07:34;;;;;;;13.33;3.23;;;6.10;99.90;;;;;;5055025;28;20179;-70
2024/03/25 01:10:00;;;;;;;10.80;3.33;;;6.10;99.90;;;;;;5066531;28;20951;-69
2024/03/25 01:12:26;;;;;;;11.87;2.60;;;6.10;99.90;;;;;;5072880;28;20170;-69
2024/03/25 01:14:55;;;;;;;8.20;2.50;;;6.10;99.90;;;;;;5067667;28;20240;-69
2024/03/25 01:17:20;;;;;;;5.80;4.23;;;6.10;99.90;;;;;;5072550;28;20586;-69
2024/03/25 01:19:46;;;;;;;6.67;2.80;;;6.10;99.90;;;;;;5072842;28;20421;-69
2024/03/25 01:22:12;;;;;;;17.30;3.07;;;6.10;99.90;;;;;;5072974;28;20167;-70
2024/03/25 01:24:37;;;;;;;4.60;2.20;;;6.10;99.90;;;;;;5068360;28;20439;-69
2024/03/25 01:27:03;;;;;;;16.17;2.57;;;6.10;99.90;;;;;;5072398;28;20669;-69
2024/03/25 01:29:28;;;;;;;7.47;2.53;;;6.10;99.90;;;;;;5072505;28;20205;-69
2024/03/25 01:31:54;;;;;;;12.33;2.00;;;6.00;99.90;;;;;;5072820;28;20173;-69
2024/03/25 01:34:20;;;;;;;5.47;2.10;;;5.90;99.90;;;;;;5050415;28;20179;-69
2024/03/25 01:36:45;;;;;;;11.60;4.10;;;5.90;99.90;;;;;;5072184;28;20183;-69
2024/03/25 01:39:11;;;;;;;11.73;3.33;;;5.80;99.90;;;;;;5062512;28;20197;-69
2024/03/25 01:41:36;;;;;;;6.20;2.23;;;5.80;99.90;;;;;;5072416;28;20231;-69
2024/03/25 01:44:02;;;;;;;7.87;2.73;;;5.90;99.90;;;;;;5067600;28;20198;-69
2024/03/25 01:46:27;;;;;;;3.23;2.10;;;5.90;99.90;;;;;;5072278;28;20158;-69
2024/03/25 01:48:54;;;;;;;9.43;2.77;;;5.90;99.90;;;;;;5072259;28;20202;-69
2024/03/25 01:51:22;;;;;;;11.67;2.80;;;5.90;99.90;;;;;;5072308;28;20179;-69
2024/03/25 01:53:49;;;;;;;8.27;3.10;;;5.80;99.90;;;;;;5072101;28;20428;-69
2024/03/25 01:56:16;;;;;;;9.20;3.20;;;5.80;99.90;;;;;;5053217;28;20416;-69
2024/03/25 01:58:42;;;;;;;10.47;2.63;;;5.80;99.90;;;;;;5071882;28;20464;-69
2024/03/25 02:01:10;;;;;;;12.23;3.10;;;5.80;99.90;;;;;;5071719;28;20420;-69
2024/03/25 02:03:36;;;;;;;8.83;2.93;;;5.80;99.90;;;;;;5072835;28;20162;-69
2024/03/25 02:06:08;;;;;;;4.83;2.37;;;5.70;99.90;;;;;;5065756;28;20741;-69
2024/03/25 02:08:34;;;;;;;12.63;3.17;;;5.80;99.90;;;;;;5065151;28;20178;-69
2024/03/25 02:11:00;;;;;;;5.27;1.97;;;5.70;99.90;;;;;;5071649;28;20408;-69
2024/03/25 02:13:26;;;;;;;4.33;2.87;;;5.70;99.90;;;;;;5069611;28;20538;-69
2024/03/25 02:15:53;;;;;;;5.93;2.30;;;5.60;99.90;;;;;;5068764;28;20490;-69
2024/03/25 02:18:18;;;;;;;8.90;2.27;;;5.60;99.90;;;;;;5071615;28;20190;-69
2024/03/25 02:20:45;;;;;;;6.10;3.00;;;5.60;99.90;;;;;;5071931;28;20535;-69
2024/03/25 02:23:12;;;;;;;5.00;2.87;;;5.60;99.90;;;;;;5071933;28;20537;-69
2024/03/25 02:25:38;;;;;;;9.30;2.90;;;5.60;99.90;;;;;;5067601;28;20416;-69
2024/03/25 02:28:04;;;;;;;4.10;2.13;;;5.50;99.90;;;;;;5071399;28;20416;-69
2024/03/25 02:30:30;;;;;;;5.17;3.03;;;5.60;99.90;;;;;;5071774;28;20471;-69
2024/03/25 02:32:55;;;;;;;3.70;2.40;;;5.60;99.90;;;;;;5071986;28;20170;-69
2024/03/25 02:35:22;;;;;;;3.53;2.03;;;5.60;99.90;;;;;;5067344;28;20637;-69
2024/03/25 02:37:49;;;;;;;12.77;6.93;;;5.50;99.90;;;;;;5071563;28;20672;-69
2024/03/25 02:40:15;;;;;;;5.03;2.90;;;5.60;99.90;;;;;;5071673;28;20923;-69
2024/03/25 02:42:41;;;;;;;3.87;2.70;;;5.50;99.90;;;;;;5071648;28;20393;-69
2024/03/25 02:45:07;;;;;;;6.70;3.00;;;5.50;99.90;;;;;;5066670;28;20420;-69
2024/03/25 02:47:33;;;;;;;6.33;2.27;;;5.50;99.90;;;;;;5071327;28;20177;-69
2024/03/25 02:49:58;;;;;;;12.17;3.10;;;5.40;99.90;;;;;;5071527;28;20531;-69
2024/03/25 02:52:24;;;;;;;3.83;1.70;;;5.40;99.90;;;;;;5073573;28;20308;-69
2024/03/25 02:54:50;;;;;;;7.13;2.50;;;5.40;99.90;;;;;;5072295;28;20182;-69
2024/03/25 02:57:15;;;;;;;13.43;2.87;;;5.40;99.90;;;;;;5073635;28;20197;-69
2024/03/25 02:59:41;;;;;;;6.67;2.67;;;5.50;99.90;;;;;;5075439;28;20222;-69
2024/03/25 03:02:06;;;;;;;16.33;3.60;;;5.50;99.90;;;;;;5075698;28;20233;-69
2024/03/25 03:04:32;;;;;;;11.63;2.53;;;5.50;99.90;;;;;;5073480;28;20604;-69
2024/03/25 03:06:58;;;;;;;11.63;2.47;;;5.50;99.90;;;;;;5071978;28;20181;-69
2024/03/25 03:09:23;;;;;;;14.93;2.73;;;5.50;99.90;;;;;;5075063;28;20538;-69
2024/03/25 03:11:49;;;;;;;9.07;2.23;;;5.50;99.90;;;;;;5075306;28;20162;-69
2024/03/25 03:14:14;;;;;;;7.57;2.63;;;5.40;99.90;;;;;;5071001;28;20557;-69
2024/03/25 03:16:40;;;;;;;7.73;3.47;;;5.40;99.90;;;;;;5056967;28;20190;-69
2024/03/25 03:19:06;;;;;;;11.70;3.00;;;5.40;99.90;;;;;;5065291;28;20738;-69
2024/03/25 03:21:31;;;;;;;11.33;3.17;;;5.30;99.90;;;;;;5075483;28;20257;-69
2024/03/25 03:23:57;;;;;;;9.87;2.97;;;5.20;99.90;;;;;;5071766;28;20170;-69
2024/03/25 03:26:26;;;;;;;8.53;2.20;;;5.10;99.90;;;;;;5073907;28;20170;-70
2024/03/25 03:28:55;;;;;;;12.50;8.03;;;5.20;99.90;;;;;;5074756;28;20433;-70
2024/03/25 03:31:23;;;;;;;12.00;4.60;;;5.10;99.90;;;;;;5075023;28;20403;-69
2024/03/25 03:33:49;;;;;;;14.83;6.60;;;5.10;99.90;;;;;;5072923;28;20507;-69
2024/03/25 03:36:20;;;;;;;18.87;4.37;;;5.10;99.90;;;;;;5072593;28;20416;-69
2024/03/25 03:38:46;;;;;;;10.73;2.13;;;5.10;99.90;;;;;;5074611;28;20451;-69
2024/03/25 03:41:11;;;;;;;6.93;3.07;;;5.00;99.90;;;;;;5074900;28;20392;-69
2024/03/25 03:43:37;;;;;;;4.00;2.53;;;5.10;99.90;;;;;;5072714;28;20201;-69
2024/03/25 03:46:03;;;;;;;7.00;3.23;;;4.90;99.90;;;;;;5072217;28;20170;-69
2024/03/25 03:48:29;;;;;;;20.93;3.00;;;4.90;99.90;;;;;;5074446;28;20482;-69
2024/03/25 03:50:54;;;;;;;4.57;2.53;;;4.90;99.90;;;;;;5074720;28;20172;-69
2024/03/25 03:53:20;;;;;;;18.03;3.53;;;4.90;99.90;;;;;;5073730;28;20864;-69
2024/03/25 03:55:56;;;;;;;8.17;2.33;;;4.90;99.90;;;;;;5071035;28;20227;-69
2024/03/25 03:58:23;;;;;;;14.50;2.87;;;4.90;99.90;;;;;;5074291;28;20714;-70
2024/03/25 04:00:48;;;;;;;5.80;1.90;;;4.80;99.90;;;;;;5074457;28;20763;-69
2024/03/25 04:03:14;;;;;;;4.30;2.47;;;4.70;99.90;;;;;;5074187;28;20389;-69
2024/03/25 04:05:39;;;;;;;4.30;2.70;;;4.60;99.90;;;;;;5070035;28;20177;-69
2024/03/25 04:08:05;;;;;;;3.57;2.27;;;4.50;99.90;;;;;;5073878;28;20174;-69
2024/03/25 04:10:31;;;;;;;4.97;3.13;;;4.40;99.90;;;;;;5074209;28;20162;-69
2024/03/25 04:12:56;;;;;;;8.23;3.00;;;4.30;99.90;;;;;;5074418;28;20980;-69
2024/03/25 04:15:22;;;;;;;6.47;2.40;;;4.20;99.90;;;;;;5069834;28;20170;-69
2024/03/25 04:17:49;;;;;;;5.47;1.90;;;4.20;99.90;;;;;;5073856;28;20199;-69
2024/03/25 04:20:15;;;;;;;8.70;2.27;;;4.10;99.90;;;;;;5073791;28;20619;-69
2024/03/25 04:22:42;;;;;;;6.03;2.13;;;4.00;99.90;;;;;;5074079;28;20435;-69
2024/03/25 04:25:10;;;;;;;8.03;2.13;;;4.00;99.90;;;;;;5066801;28;20424;-69
2024/03/25 04:27:39;;;;;;;14.37;2.90;;;4.00;99.90;;;;;;5073627;28;20469;-70
2024/03/25 04:30:07;;;;;;;7.33;2.80;;;3.90;99.90;;;;;;5074002;28;20945;-69
2024/03/25 04:32:33;;;;;;;7.23;2.43;;;3.90;99.90;;;;;;5073323;28;20474;-69
2024/03/25 04:34:58;;;;;;;12.23;6.43;;;3.90;99.90;;;;;;5070622;28;20416;-69
2024/03/25 04:37:24;;;;;;;14.23;7.33;;;3.90;99.90;;;;;;5073427;28;20198;-69
2024/03/25 04:39:49;;;;;;;7.30;3.60;;;3.80;99.90;;;;;;5073698;28;20435;-69
2024/03/25 04:42:15;;;;;;;12.17;2.50;;;3.80;99.90;;;;;;5073941;28;20541;-69
2024/03/25 04:44:40;;;;;;;4.00;2.00;;;3.70;99.90;;;;;;5070318;28;20170;-69
2024/03/25 04:47:06;;;;;;;5.07;2.90;;;3.70;99.90;;;;;;5073223;28;20295;-69
2024/03/25 04:49:31;;;;;;;17.80;3.67;;;3.60;99.90;;;;;;5063940;28;20190;-69
2024/03/25 04:51:57;;;;;;;3.13;2.20;;;3.60;99.90;;;;;;5073479;28;20174;-69
2024/03/25 04:54:22;;;;;;;6.93;2.77;;;3.50;99.90;;;;;;5053607;28;20179;-69
2024/03/25 04:56:48;;;;;;;6.13;2.83;;;3.50;99.90;;;;;;5073057;28;20178;-69
2024/03/25 04:59:13;;;;;;;7.50;3.10;;;3.50;99.90;;;;;;5073085;28;20197;-69
2024/03/25 05:01:39;;;;;;;7.70;2.50;;;3.40;99.90;;;;;;5055399;28;20193;-69
2024/03/25 05:04:08;;;;;;;3.07;2.10;;;3.50;99.90;;;;;;5070997;28;20205;-69
2024/03/25 05:06:34;;;;;;;4.47;2.53;;;3.40;99.90;;;;;;5069269;28;20173;-69
2024/03/25 05:09:00;;;;;;;13.67;2.40;;;3.40;99.90;;;;;;5073000;28;20432;-69
2024/03/25 05:11:25;;;;;;;4.07;2.40;;;3.30;99.90;;;;;;5073113;28;20311;-69
2024/03/25 05:13:51;;;;;;;5.83;1.90;;;3.30;99.90;;;;;;5070853;28;20200;-69
2024/03/25 05:16:16;;;;;;;8.93;2.90;;;3.30;99.90;;;;;;5070002;28;20730;-69
2024/03/25 05:18:42;;;;;;;6.90;3.23;;;3.30;99.90;;;;;;5062951;28;20197;-69
2024/03/25 05:21:07;;;;;;;19.63;10.47;;;3.30;99.90;;;;;;5072710;28;20167;-69
2024/03/25 05:23:33;;;;;;;20.73;13.03;;;3.30;99.90;;;;;;5070524;28;20175;-69
2024/03/25 05:25:58;;;;;;;13.83;5.80;;;3.30;99.90;;;;;;5068591;28;20257;-69
2024/03/25 05:28:24;;;;;;;13.07;4.13;;;3.30;99.90;;;;;;5072889;28;20201;-69
2024/03/25 05:30:50;;;;;;;9.70;4.20;;;3.20;99.90;;;;;;5072677;28;20166;-69
2024/03/25 05:33:15;;;;;;;4.20;2.90;;;3.20;99.90;;;;;;5072657;28;20744;-69
2024/03/25 05:35:41;;;;;;;4.47;2.20;;;3.20;99.90;;;;;;5069868;28;20178;-69
2024/03/25 05:38:07;;;;;;;8.63;3.37;;;3.20;99.90;;;;;;5070186;28;20194;-69
2024/03/25 05:40:32;;;;;;;5.63;3.10;;;3.20;99.90;;;;;;5062862;28;20166;-69
2024/03/25 05:42:58;;;;;;;7.63;2.20;;;3.30;99.90;;;;;;5072359;28;20204;-69
2024/03/25 05:45:24;;;;;;;6.37;2.13;;;3.30;99.90;;;;;;5071105;28;20182;-69
2024/03/25 05:47:52;;;;;;;9.80;3.77;;;3.30;99.90;;;;;;5068244;28;20239;-69
2024/03/25 05:50:17;;;;;;;19.50;3.20;;;3.40;99.90;;;;;;5072210;28;20194;-69
2024/03/25 05:52:43;;;;;;;5.40;3.03;;;3.40;99.90;;;;;;5072089;28;20424;-69
2024/03/25 05:55:10;;;;;;;11.73;3.53;;;3.50;99.90;;;;;;5071520;28;20223;-69
2024/03/25 05:57:36;;;;;;;5.00;2.87;;;3.70;99.90;;;;;;5063008;28;20189;-69
2024/03/25 06:00:03;;;;;;;5.80;3.40;;;3.80;99.90;;;;;;5057769;28;20432;-69
2024/03/25 06:02:28;;;;;;;13.47;3.43;;;4.00;99.90;;;;;;5072009;28;21161;-69
2024/03/25 06:04:54;;;;;;;7.30;3.00;;;4.20;99.90;;;;;;5072179;28;20546;-69
2024/03/25 06:07:19;;;;;;;8.87;4.00;;;4.40;99.90;;;;;;5067809;28;20182;-69
2024/03/25 06:09:45;;;;;;;11.93;3.47;;;4.60;99.90;;;;;;5071874;28;20247;-69
2024/03/25 06:12:10;;;;;;;7.00;3.30;;;4.80;99.90;;;;;;5071759;28;20178;-69
2024/03/25 06:14:37;;;;;;;6.53;2.80;;;5.10;99.90;;;;;;5067811;28;20178;-69
2024/03/25 06:17:02;;;;;;;7.30;3.00;;;5.50;99.90;;;;;;5068636;28;20686;-69
2024/03/25 06:19:28;;;;;;;4.43;3.07;;;6.10;99.90;;;;;;5062208;28;20641;-70
2024/03/25 06:21:53;;;;;;;11.27;3.20;;;6.70;99.90;;;;;;5071907;28;20174;-70
2024/03/25 06:24:19;;;;;;;7.73;2.93;;;7.30;99.90;;;;;;5072087;28;20235;-70
2024/03/25 06:26:45;;;;;;;4.97;3.00;;;7.80;99.90;;;;;;5070837;28;20559;-70
2024/03/25 06:29:10;;;;;;;7.73;3.27;;;8.40;99.90;;;;;;5071757;28;20189;-70
2024/03/25 06:34:21;;;;;;;13.67;3.43;;;9.50;99.90;;;;;;5071813;28;20173;-70
2024/03/25 06:36:48;;;;;;;6.07;3.07;;;10.20;99.90;;;;;;5071484;28;20466;-69
2024/03/25 06:39:16;;;;;;;6.77;3.10;;;10.70;99.90;;;;;;5071641;28;20456;-70
2024/03/25 06:41:42;;;;;;;6.83;2.77;;;11.30;99.90;;;;;;5071801;28;20488;-70
2024/03/25 06:44:07;;;;;;;5.03;3.00;;;11.90;99.90;;;;;;5071799;28;20491;-70
2024/03/25 06:46:33;;;;;;;4.17;2.47;;;12.30;99.90;;;;;;5071337;28;20178;-70
2024/03/25 06:48:59;;;;;;;3.73;2.23;;;12.70;99.90;;;;;;5071696;28;20194;-70
2024/03/25 06:51:25;;;;;;;3.60;2.87;;;13.10;99.90;;;;;;5071563;28;20173;-70
2024/03/25 06:53:50;;;;;;;5.40;2.20;;;13.30;99.90;;;;;;5071802;28;20416;-70
2024/03/25 06:56:16;;;;;;;2.60;2.40;;;13.40;99.90;;;;;;5071804;28;20679;-70
2024/03/25 06:58:43;;;;;;;2.57;2.37;;;13.20;99.90;;;;;;5071425;28;20228;-70
2024/03/25 07:01:09;;;;;;;5.73;2.40;;;12.90;99.90;;;;;;5069405;28;20644;-70
2024/03/25 07:03:35;;;;;;;6.33;2.30;;;12.60;99.90;;;;;;5064916;28;20509;-69
2024/03/25 07:06:01;;;;;;;3.37;2.53;;;12.10;99.90;;;;;;5071194;28;20495;-70
2024/03/25 07:08:33;;;;;;;4.17;1.90;;;11.80;99.90;;;;;;5071381;28;20198;-69
2024/03/25 07:10:58;;;;;;;3.80;2.20;;;11.10;99.90;;;;;;5071459;28;20756;-70
2024/03/25 07:13:24;;;;;;;5.73;2.60;;;10.90;99.90;;;;;;5071427;28;20415;-70
2024/03/25 07:15:50;;;;;;;10.03;2.43;;;10.40;99.90;;;;;;5067466;28;20265;-69
2024/03/25 07:18:16;;;;;;;2.83;1.80;;;10.00;99.90;;;;;;5071093;28;20237;-70
2024/03/25 07:20:43;;;;;;;4.00;2.20;;;10.10;99.90;;;;;;5071308;28;20696;-69
2024/03/25 07:23:09;;;;;;;3.50;2.40;;;10.80;99.90;;;;;;5071449;28;20782;-70
2024/03/25 07:25:34;;;;;;;6.40;2.50;;;12.10;99.90;;;;;;5071376;28;20509;-70
2024/03/25 07:28:00;;;;;;;2.90;2.03;;;13.30;99.90;;;;;;5071168;28;20470;-70
2024/03/25 07:30:28;;;;;;;5.30;2.30;;;14.70;99.90;;;;;;5071325;28;20201;-70
2024/03/25 07:32:58;;;;;;;5.63;2.50;;;15.50;92.30;;;;;;5071320;28;20223;-70
2024/03/25 07:35:24;;;;;;;4.83;2.30;;;15.70;80.20;;;;;;5071278;28;20424;-70
2024/03/25 07:37:53;;;;;;;6.30;2.37;;;16.40;77.70;;;;;;5071772;28;20462;-70
2024/03/25 07:40:19;;;;;;;4.00;2.27;;;17.30;69.40;;;;;;5074897;28;20848;-71
2024/03/25 07:42:45;;;;;;;5.43;2.50;;;18.20;63.00;;;;;;5074979;28;20907;-70
2024/03/25 07:45:11;;;;;;;3.63;2.90;;;19.20;57.50;;;;;;5074836;28;20404;-70
2024/03/25 07:47:37;;;;;;;4.00;2.73;;;19.70;53.10;;;;;;5074604;28;20694;-68
2024/03/25 07:50:03;;;;;;;5.40;2.97;;;19.50;49.90;;;;;;5074784;28;20535;-67
2024/03/25 07:52:29;;;;;;;5.50;3.00;;;19.30;50.90;;;;;;5050090;28;20204;-67
2024/03/25 07:54:55;;;;;;;11.87;3.20;;;19.30;50.40;;;;;;5067444;28;20235;-67
2024/03/25 07:57:20;;;;;;;8.40;2.90;;;19.20;50.50;;;;;;5059452;28;20457;-67
2024/03/25 07:59:46;;;;;;;3.73;2.97;;;19.70;50.60;;;;;;5063426;28;20482;-67
2024/03/25 08:02:12;;;;;;;5.03;3.33;;;20.10;49.00;;;;;;5062396;28;20265;-67
2024/03/25 08:04:37;;;;;;;2.77;2.40;;;20.60;49.20;;;;;;5071852;28;20244;-67
2024/03/25 08:07:03;;;;;;;7.27;3.43;;;20.90;48.10;;;;;;5073957;28;20166;-67
2024/03/25 08:09:29;;;;;;;4.60;2.40;;;21.00;46.20;;;;;;5056198;28;20622;-67
2024/03/25 08:11:55;;;;;;;5.33;2.93;;;22.20;47.40;;;;;;5074280;28;20178;-67
2024/03/25 08:14:20;;;;;;;6.10;3.47;;;23.20;45.00;;;;;;5069131;28;20427;-68
2024/03/25 08:16:46;;;;;;;3.50;2.70;;;24.40;44.00;;;;;;5057896;28;20175;-68
2024/03/25 08:19:11;;;;;;;3.83;2.37;;;24.90;40.70;;;;;;5068038;28;20208;-68
2024/03/25 08:21:37;;;;;;;4.10;3.07;;;25.40;39.60;;;;;;5074191;28;20174;-68
2024/03/25 08:24:03;;;;;;;3.70;2.53;;;26.10;38.60;;;;;;5063346;28;20171;-67
2024/03/25 08:26:28;;;;;;;4.80;2.57;;;26.80;36.60;;;;;;5058314;28;20187;-68
2024/03/25 08:28:54;;;;;;;4.23;3.03;;;27.10;34.50;;;;;;5064912;28;20242;-68
2024/03/25 08:31:19;;;;;;;5.20;2.50;;;26.80;32.80;;;;;;5062617;28;20634;-68
2024/03/25 08:33:45;;;;;;;7.33;2.40;;;26.90;34.00;;;;;;5071939;28;20181;-67
2024/03/25 08:36:10;;;;;;;4.60;3.03;;;28.00;34.80;;;;;;5073774;28;20171;-67
2024/03/25 08:38:36;;;;;;;6.30;2.50;;;29.20;33.50;;;;;;5073562;28;20209;-67
2024/03/25 08:41:01;;;;;;;3.33;2.50;;;29.90;31.50;;;;;;5073805;28;20170;-67
2024/03/25 08:43:27;;;;;;;3.70;2.30;;;30.20;30.20;;;;;;5072241;28;20174;-67
2024/03/25 08:45:52;;;;;;;4.27;2.40;;;29.80;29.50;;;;;;5073445;28;20175;-67
2024/03/25 08:48:18;;;;;;;5.27;2.60;;;30.50;30.00;;;;;;5073526;28;20645;-67
2024/03/25 08:50:44;;;;;;;4.67;3.03;;;30.90;29.10;;;;;;5072713;28;20192;-67
2024/03/25 08:53:09;;;;;;;4.13;2.37;;;31.10;28.40;;;;;;5068833;28;20224;-67
2024/03/25 08:55:35;;;;;;;4.00;2.40;;;31.50;28.10;;;;;;5073417;28;20617;-67
2024/03/25 08:58:00;;;;;;;4.00;2.77;;;32.40;28.10;;;;;;5073140;28;20664;-67
2024/03/25 09:00:27;;;;;;;5.93;2.73;;;32.40;26.30;;;;;;5073272;28;20618;-67
2024/03/25 09:02:55;;;;;;;5.73;2.67;;;32.30;26.50;;;;;;5060278;28;20622;-68
2024/03/25 09:05:21;;;;;;;2.43;1.90;;;33.00;26.50;;;;;;5073986;28;20486;-67
2024/03/25 09:07:51;;;;;;;5.03;2.83;;;33.00;25.90;;;;;;5073186;28;20824;-67
2024/03/25 09:13:03;;;;;;;3.30;3.00;;;30.40;25.50;;;;;;5066844;28;20828;-67
2024/03/25 09:15:29;;;;;;;7.00;3.00;;;31.00;26.40;;;;;;5065036;28;20507;-67
2024/03/25 09:17:54;;;;;;;4.77;3.33;;;32.10;26.70;;;;;;5068116;28;20550;-67
2024/03/25 09:20:20;;;;;;;4.03;2.80;;;33.10;26.20;;;;;;5072667;28;20486;-67
2024/03/25 09:22:49;;;;;;;4.53;2.37;;;34.20;25.40;;;;;;5064563;28;20174;-67
2024/03/25 09:25:15;;;;;;;7.70;2.77;;;35.40;25.00;;;;;;5064333;28;20467;-67
2024/03/25 09:27:45;;;;;;;5.33;2.97;;;36.60;24.80;;;;;;5063213;28;20466;-67
2024/03/25 09:30:11;;;;;;;9.67;3.40;;;38.10;24.60;;;;;;5067861;28;20922;-67
2024/03/25 09:32:37;;;;;;;5.30;3.03;;;39.30;23.60;;;;;;5054461;28;20457;-68
2024/03/25 09:35:03;;;;;;;6.27;3.10;;;40.40;22.20;;;;;;5070988;28;20178;-67
2024/03/25 09:37:29;;;;;;;6.20;3.43;;;40.30;20.30;;;;;;5068905;28;20417;-69
2024/03/25 09:39:55;;;;;;;4.10;2.60;;;40.40;20.70;;;;;;5066451;28;20441;-68
2024/03/25 09:42:26;;;;;;;4.70;3.10;;;40.90;20.90;;;;;;5063690;28;20431;-68
2024/03/25 09:44:54;;;;;;;2.40;2.20;;;41.30;20.60;;;;;;5072466;28;20177;-68
2024/03/25 09:47:21;;;;;;;7.97;3.40;;;41.50;20.30;;;;;;5072097;28;20470;-67
2024/03/25 09:49:47;;;;;;;4.10;2.80;;;40.50;19.00;;;;;;5064042;28;20444;-67
2024/03/25 09:52:13;;;;;;;5.13;3.70;;;40.10;19.60;;;;;;5065102;28;20437;-67
2024/03/25 09:54:39;;;;;;;2.57;2.07;;;39.30;18.30;;;;;;5064350;28;20914;-67
2024/03/25 09:57:05;;;;;;;2.80;2.43;;;40.40;19.80;;;;;;5066082;28;20427;-68
2024/03/25 09:59:30;;;;;;;4.03;2.60;;;41.10;19.40;;;;;;5069433;28;20229;-68
2024/03/25 10:01:58;;;;;;;7.60;3.33;;;40.50;19.50;;;;;;5071828;28;20832;-67
2024/03/25 10:04:25;;;;;;;4.23;2.60;;;40.60;18.90;;;;;;5072076;28;20174;-67
2024/03/25 10:06:50;;;;;;;6.40;3.40;;;40.50;19.10;;;;;;5071304;28;20404;-67
2024/03/25 10:09:22;;;;;;;6.97;2.63;;;39.20;18.50;;;;;;5072226;28;20425;-67
2024/03/25 10:11:51;;;;;;;3.23;2.57;;;38.60;19.20;;;;;;5070874;28;20227;-67
2024/03/25 10:14:16;;;;;;;4.00;2.60;;;38.80;19.70;;;;;;5072042;28;20400;-67
2024/03/25 10:16:43;;;;;;;4.40;2.57;;;37.90;19.50;;;;;;5071713;28;20509;-68
2024/03/25 10:19:09;;;;;;;5.63;3.20;;;35.70;18.80;;;;;;5071283;28;20738;-68
2024/03/25 10:21:35;;;;;;;4.60;2.70;;;34.80;19.90;;;;;;5070212;28;20900;-67
2024/03/25 10:24:01;;;;;;;6.07;2.30;;;35.40;20.40;;;;;;5059912;28;20413;-67
2024/03/25 10:26:31;;;;;;;4.73;2.60;;;36.60;20.50;;;;;;5071277;28;20407;-68
2024/03/25 10:29:05;;;;;;;4.80;2.47;;;37.60;20.40;;;;;;5071806;28;20223;-68
2024/03/25 10:31:31;;;;;;;6.73;2.77;;;38.80;20.00;;;;;;5071827;28;20779;-66
2024/03/25 10:33:56;;;;;;;4.20;2.33;;;39.20;19.10;;;;;;5071790;28;20415;-68
2024/03/25 10:36:24;;;;;;;5.47;2.60;;;39.70;19.10;;;;;;5071469;28;20162;-68
2024/03/25 10:38:55;;;;;;;5.40;2.50;;;39.20;18.60;;;;;;5071689;28;20248;-68
2024/03/25 10:41:22;;;;;;;7.73;2.43;;;40.20;19.00;;;;;;5071808;28;20400;-68
2024/03/25 10:43:49;;;;;;;4.07;2.53;;;41.00;17.40;;;;;;5053991;28;20446;-68
2024/03/25 10:46:19;;;;;;;3.53;2.60;;;41.80;18.30;;;;;;5053775;28;20818;-67
2024/03/25 10:49:18;;;;;;;3.60;2.70;;;42.50;17.70;;;;;;5071713;28;20429;-67
2024/03/25 10:51:45;;;;;;;3.53;3.00;;;42.20;17.30;;;;;;5071647;28;20806;-67
2024/03/25 10:54:12;;;;;;;4.30;2.60;;;41.90;17.50;;;;;;5071583;28;20447;-67
2024/03/25 10:56:38;;;;;;;5.27;2.60;;;41.90;17.70;;;;;;5071469;28;20408;-67
2024/03/25 10:59:05;;;;;;;6.63;3.07;;;41.20;16.30;;;;;;5071468;28;20594;-67
2024/03/25 11:01:31;;;;;;;4.33;2.70;;;40.00;16.70;;;;;;5071523;28;20418;-67
2024/03/25 11:03:57;;;;;;;4.43;2.33;;;39.70;17.40;;;;;;5071680;28;20487;-67
2024/03/25 11:06:23;;;;;;;3.77;2.43;;;39.50;17.40;;;;;;5071423;28;20825;-67
2024/03/25 11:08:58;;;;;;;4.80;3.50;;;39.30;17.20;;;;;;5071479;28;20510;-67
2024/03/25 11:11:30;;;;;;;9.13;3.13;;;39.10;17.40;;;;;;5071482;28;20280;-67
2024/03/25 11:13:56;;;;;;;2.87;2.17;;;39.10;18.20;;;;;;5074507;28;20437;-67
2024/03/25 11:16:31;;;;;;;4.30;2.40;;;39.30;17.50;;;;;;5075236;28;20443;-67
2024/03/25 11:19:03;;;;;;;2.87;2.50;;;40.30;17.60;;;;;;5057350;28;20692;-68
2024/03/25 11:21:29;;;;;;;3.80;2.23;;;40.40;17.40;;;;;;5075320;28;20372;-67
2024/03/25 11:23:54;;;;;;;5.60;3.00;;;39.00;16.60;;;;;;5071805;28;20404;-66
2024/03/25 11:26:22;;;;;;;2.40;2.20;;;38.10;17.20;;;;;;5075015;28;20253;-67
2024/03/25 11:28:49;;;;;;;3.10;2.83;;;37.50;17.40;;;;;;5074922;28;20645;-67
2024/03/25 11:31:15;;;;;;;2.33;2.10;;;37.40;17.70;;;;;;5075052;28;20439;-67
2024/03/25 11:33:40;;;;;;;3.90;2.00;;;38.00;18.20;;;;;;5074995;28;20408;-67
2024/03/25 11:36:07;;;;;;;3.70;2.10;;;39.20;18.70;;;;;;5070581;28;20417;-67
2024/03/25 11:38:32;;;;;;;3.10;1.97;;;39.70;17.00;;;;;;5071923;28;20197;-67
2024/03/25 11:40:58;;;;;;;3.70;2.10;;;39.70;16.40;;;;;;5074908;28;20409;-67
2024/03/25 11:43:24;;;;;;;2.07;1.70;;;39.60;15.20;;;;;;5074862;28;20641;-67
2024/03/25 11:45:50;;;;;;;2.70;1.73;;;39.60;15.30;;;;;;5074682;28;20155;-67
2024/03/25 11:48:16;;;;;;;2.73;1.70;;;40.10;15.30;;;;;;5074755;28;20427;-67
2024/03/25 11:50:45;;;;;;;4.27;2.37;;;40.60;15.50;;;;;;5074681;28;20170;-67
2024/03/25 11:53:10;;;;;;;5.20;2.33;;;41.70;16.20;;;;;;5074513;28;20192;-67
2024/03/25 11:55:37;;;;;;;1.83;1.67;;;43.10;16.50;;;;;;5074678;28;20537;-67
2024/03/25 11:58:02;;;;;;;3.77;1.70;;;43.60;14.90;;;;;;5074629;28;20827;-67
2024/03/25 12:00:28;;;;;;;1.67;1.30;;;42.70;13.80;;;;;;5074540;28;20415;-67
2024/03/25 12:02:54;;;;;;;1.90;1.60;;;43.10;14.20;;;;;;5074512;28;20262;-67
2024/03/25 12:05:20;;;;;;;1.47;1.17;;;43.60;14.40;;;;;;5074512;28;20432;-67
2024/03/25 12:07:46;;;;;;;2.80;1.37;;;44.10;14.30;;;;;;5074355;28;20629;-67
2024/03/25 12:12:56;;;;;;;3.80;2.00;;;45.50;14.60;;;;;;5074395;28;20683;-67
2024/03/25 12:15:22;;;;;;;2.20;1.80;;;46.20;13.70;;;;;;5074163;28;20395;-67
2024/03/25 12:17:48;;;;;;;2.00;1.57;;;46.80;13.10;;;;;;5074089;28;20197;-67
2024/03/25 12:20:14;;;;;;;2.60;2.03;;;45.90;12.40;;;;;;5074317;28;20414;-67
2024/03/25 12:22:40;;;;;;;2.10;2.00;;;44.30;12.60;;;;;;5074196;28;20375;-67
2024/03/25 12:25:07;;;;;;;3.60;2.30;;;43.30;13.30;;;;;;5074065;28;20367;-67
2024/03/25 12:27:33;;;;;;;1.93;1.73;;;43.10;14.20;;;;;;5060846;28;20938;-67
2024/03/25 12:30:04;;;;;;;3.50;2.33;;;43.00;14.00;;;;;;5073788;28;20452;-67
2024/03/25 12:32:33;;;;;;;1.80;1.37;;;43.10;13.90;;;;;;5074167;28;20380;-67
2024/03/25 12:34:59;;;;;;;1.90;1.70;;;43.50;13.50;;;;;;5066466;28;20442;-67
2024/03/25 12:37:26;;;;;;;3.10;2.10;;;43.30;12.30;;;;;;5073302;28;20379;-67
2024/03/25 12:39:52;;;;;;;1.60;1.43;;;42.50;11.80;;;;;;5073663;28;20205;-67
2024/03/25 12:42:18;;;;;;;1.97;1.73;;;41.40;12.30;;;;;;5069568;28;20739;-67
2024/03/25 12:44:44;;;;;;;2.90;1.47;;;41.70;12.70;;;;;;5071935;28;20170;-67
2024/03/25 12:47:09;;;;;;;1.63;1.53;;;42.20;12.90;;;;;;5073443;28;20238;-67
2024/03/25 12:49:35;;;;;;;2.17;1.60;;;42.90;13.20;;;;;;5073500;28;20987;-67
2024/03/25 12:52:04;;;;;;;1.60;1.43;;;43.20;12.70;;;;;;5073038;28;20215;-67
2024/03/25 12:54:30;;;;;;;2.70;1.67;;;43.50;13.60;;;;;;5073371;28;20375;-67